sensor_id;sensor_type;location;lat;lon;timestamp;temperature;humidity
58951;DHT22;44730;53.158;6.398;2023-03-22T00:00:49;9.80;99.90
58951;DHT22;44730;53.158;6.398;2023-03-22T00:03:15;9.80;99.90
58951;DHT22;44730;53.158;6.398;2023-03-22T00:05:41;9.80;99.90
58951;DHT22;44730;53.158;6.398;2023-03-22T00:08:08;9.80;99.90
58951;DHT22;44730;53.158;6.398;2023-03-22T00:10:36;9.80;99.90
58951;DHT22;44730;53.158;6.398;2023-03-22T00:13:03;9.80;99.90
58951;DHT22;44730;53.158;6.398;2023-03-22T00:15:28;9.80;99.90
58951;DHT22;44730;53.158;6.398;2023-03-22T00:17:58;9.70;99.90
58951;DHT22;44730;53.158;6.398;2023-03-22T00:20:25;9.70;99.90
58951;DHT22;44730;53.158;6.398;2023-03-22T00:22:51;9.70;99.90
58951;DHT22;44730;53.158;6.398;2023-03-22T00:25:17;9.70;99.90
58951;DHT22;44730;53.158;6.398;2023-03-22T00:27:43;9.60;99.90
58951;DHT22;44730;53.158;6.398;2023-03-22T00:30:10;9.60;99.90
58951;DHT22;44730;53.158;6.398;2023-03-22T00:32:37;9.60;99.90
58951;DHT22;44730;53.158;6.398;2023-03-22T00:35:04;9.60;99.90
58951;DHT22;44730;53.158;6.398;2023-03-22T00:37:30;9.50;99.90
58951;DHT22;44730;53.158;6.398;2023-03-22T00:39:59;9.50;99.90
58951;DHT22;44730;53.158;6.398;2023-03-22T00:42:25;9.50;99.90
58951;DHT22;44730;53.158;6.398;2023-03-22T00:44:51;9.50;99.90
58951;DHT22;44730;53.158;6.398;2023-03-22T00:47:17;9.50;99.90
58951;DHT22;44730;53.158;6.398;2023-03-22T00:49:43;9.40;99.90
58951;DHT22;44730;53.158;6.398;2023-03-22T00:52:08;9.40;99.90
58951;DHT22;44730;53.158;6.398;2023-03-22T00:54:34;9.40;99.90
58951;DHT22;44730;53.158;6.398;2023-03-22T00:57:00;9.40;99.90
58951;DHT22;44730;53.158;6.398;2023-03-22T00:59:26;9.40;99.90
58951;DHT22;44730;53.158;6.398;2023-03-22T01:01:53;9.40;99.90
58951;DHT22;44730;53.158;6.398;2023-03-22T01:04:19;9.40;99.90
58951;DHT22;44730;53.158;6.398;2023-03-22T01:06:51;9.40;99.90
58951;DHT22;44730;53.158;6.398;2023-03-22T01:09:24;9.30;99.90
58951;DHT22;44730;53.158;6.398;2023-03-22T01:11:56;9.30;99.90
58951;DHT22;44730;53.158;6.398;2023-03-22T01:14:23;9.30;99.90
58951;DHT22;44730;53.158;6.398;2023-03-22T01:16:50;9.30;99.90
58951;DHT22;44730;53.158;6.398;2023-03-22T01:19:20;9.30;99.90
58951;DHT22;44730;53.158;6.398;2023-03-22T01:21:46;9.30;99.90
58951;DHT22;44730;53.158;6.398;2023-03-22T01:24:11;9.30;99.90
58951;DHT22;44730;53.158;6.398;2023-03-22T01:26:37;9.30;99.90
58951;DHT22;44730;53.158;6.398;2023-03-22T01:29:05;9.30;99.90
58951;DHT22;44730;53.158;6.398;2023-03-22T01:31:31;9.30;99.90
58951;DHT22;44730;53.158;6.398;2023-03-22T01:33:56;9.20;99.90
58951;DHT22;44730;53.158;6.398;2023-03-22T01:36:22;9.20;99.90
58951;DHT22;44730;53.158;6.398;2023-03-22T01:38:48;9.20;99.90
58951;DHT22;44730;53.158;6.398;2023-03-22T01:41:15;9.20;99.90
58951;DHT22;44730;53.158;6.398;2023-03-22T01:43:41;9.20;99.90
58951;DHT22;44730;53.158;6.398;2023-03-22T01:46:07;9.20;99.90
58951;DHT22;44730;53.158;6.398;2023-03-22T01:48:43;9.10;99.90
58951;DHT22;44730;53.158;6.398;2023-03-22T01:51:19;9.10;99.90
58951;DHT22;44730;53.158;6.398;2023-03-22T01:53:49;9.10;99.90
58951;DHT22;44730;53.158;6.398;2023-03-22T01:56:18;9.10;99.90
58951;DHT22;44730;53.158;6.398;2023-03-22T01:58:46;9.10;99.90
58951;DHT22;44730;53.158;6.398;2023-03-22T02:01:14;9.10;99.90
58951;DHT22;44730;53.158;6.398;2023-03-22T02:06:28;9.00;99.90
58951;DHT22;44730;53.158;6.398;2023-03-22T02:08:56;9.00;99.90
58951;DHT22;44730;53.158;6.398;2023-03-22T02:12:03;9.00;99.90
58951;DHT22;44730;53.158;6.398;2023-03-22T02:17:23;9.00;99.90
58951;DHT22;44730;53.158;6.398;2023-03-22T02:28:41;9.00;99.90
58951;DHT22;44730;53.158;6.398;2023-03-22T02:31:21;9.00;99.90
58951;DHT22;44730;53.158;6.398;2023-03-22T02:34:15;9.00;99.90
58951;DHT22;44730;53.158;6.398;2023-03-22T02:42:42;9.10;99.90
58951;DHT22;44730;53.158;6.398;2023-03-22T02:45:16;9.10;99.90
58951;DHT22;44730;53.158;6.398;2023-03-22T02:47:54;9.10;99.90
58951;DHT22;44730;53.158;6.398;2023-03-22T02:50:33;9.20;99.90
58951;DHT22;44730;53.158;6.398;2023-03-22T02:53:16;9.20;99.90
58951;DHT22;44730;53.158;6.398;2023-03-22T02:56:05;9.20;99.90
58951;DHT22;44730;53.158;6.398;2023-03-22T02:58:52;9.20;99.90
58951;DHT22;44730;53.158;6.398;2023-03-22T03:01:31;9.30;99.90
58951;DHT22;44730;53.158;6.398;2023-03-22T03:04:02;9.30;99.90
58951;DHT22;44730;53.158;6.398;2023-03-22T03:06:32;9.30;99.90
58951;DHT22;44730;53.158;6.398;2023-03-22T03:09:00;9.30;99.90
58951;DHT22;44730;53.158;6.398;2023-03-22T03:11:29;9.30;99.90
58951;DHT22;44730;53.158;6.398;2023-03-22T03:13:56;9.30;99.90
58951;DHT22;44730;53.158;6.398;2023-03-22T03:16:26;9.40;99.90
58951;DHT22;44730;53.158;6.398;2023-03-22T03:19:09;9.30;99.90
58951;DHT22;44730;53.158;6.398;2023-03-22T03:21:45;9.40;99.90
58951;DHT22;44730;53.158;6.398;2023-03-22T03:24:32;9.40;99.90
58951;DHT22;44730;53.158;6.398;2023-03-22T03:27:23;9.30;99.90
58951;DHT22;44730;53.158;6.398;2023-03-22T03:29:59;9.30;99.90
58951;DHT22;44730;53.158;6.398;2023-03-22T03:32:44;9.30;99.90
58951;DHT22;44730;53.158;6.398;2023-03-22T03:35:23;9.30;99.90
58951;DHT22;44730;53.158;6.398;2023-03-22T03:37:58;9.30;99.90
58951;DHT22;44730;53.158;6.398;2023-03-22T03:40:47;9.30;99.90
58951;DHT22;44730;53.158;6.398;2023-03-22T03:43:14;9.30;99.90
58951;DHT22;44730;53.158;6.398;2023-03-22T03:45:41;9.30;99.90
58951;DHT22;44730;53.158;6.398;2023-03-22T03:48:18;9.30;99.90
58951;DHT22;44730;53.158;6.398;2023-03-22T03:50:46;9.30;99.90
58951;DHT22;44730;53.158;6.398;2023-03-22T03:53:14;9.30;99.90
58951;DHT22;44730;53.158;6.398;2023-03-22T03:55:40;9.30;99.90
58951;DHT22;44730;53.158;6.398;2023-03-22T03:58:06;9.20;99.90
58951;DHT22;44730;53.158;6.398;2023-03-22T04:00:34;9.30;99.90
58951;DHT22;44730;53.158;6.398;2023-03-22T04:03:01;9.20;99.90
58951;DHT22;44730;53.158;6.398;2023-03-22T04:05:27;9.30;99.90
58951;DHT22;44730;53.158;6.398;2023-03-22T04:07:53;9.20;99.90
58951;DHT22;44730;53.158;6.398;2023-03-22T04:10:19;9.20;99.90
58951;DHT22;44730;53.158;6.398;2023-03-22T04:12:45;9.20;99.90
58951;DHT22;44730;53.158;6.398;2023-03-22T04:15:11;9.20;99.90
58951;DHT22;44730;53.158;6.398;2023-03-22T04:17:38;9.20;99.90
58951;DHT22;44730;53.158;6.398;2023-03-22T04:20:06;9.30;99.90
58951;DHT22;44730;53.158;6.398;2023-03-22T04:22:33;9.20;99.90
58951;DHT22;44730;53.158;6.398;2023-03-22T04:24:59;9.20;99.90
58951;DHT22;44730;53.158;6.398;2023-03-22T04:27:26;9.20;99.90
58951;DHT22;44730;53.158;6.398;2023-03-22T04:29:52;9.30;99.90
58951;DHT22;44730;53.158;6.398;2023-03-22T04:32:20;9.30;99.90
58951;DHT22;44730;53.158;6.398;2023-03-22T04:34:49;9.30;99.90
58951;DHT22;44730;53.158;6.398;2023-03-22T04:37:15;9.30;99.90
58951;DHT22;44730;53.158;6.398;2023-03-22T04:39:41;9.30;99.90
58951;DHT22;44730;53.158;6.398;2023-03-22T04:42:07;9.30;99.90
58951;DHT22;44730;53.158;6.398;2023-03-22T04:44:33;9.30;99.90
58951;DHT22;44730;53.158;6.398;2023-03-22T04:46:59;9.30;99.90
58951;DHT22;44730;53.158;6.398;2023-03-22T04:49:24;9.30;99.90
58951;DHT22;44730;53.158;6.398;2023-03-22T04:51:55;9.30;99.90
58951;DHT22;44730;53.158;6.398;2023-03-22T04:54:21;9.30;99.90
58951;DHT22;44730;53.158;6.398;2023-03-22T04:56:47;9.30;99.90
58951;DHT22;44730;53.158;6.398;2023-03-22T04:59:13;9.30;99.90
58951;DHT22;44730;53.158;6.398;2023-03-22T05:01:42;9.30;99.90
58951;DHT22;44730;53.158;6.398;2023-03-22T05:04:07;9.20;99.90
58951;DHT22;44730;53.158;6.398;2023-03-22T05:06:33;9.20;99.90
58951;DHT22;44730;53.158;6.398;2023-03-22T05:09:06;9.20;99.90
58951;DHT22;44730;53.158;6.398;2023-03-22T05:11:32;9.20;99.90
58951;DHT22;44730;53.158;6.398;2023-03-22T05:13:58;9.20;99.90
58951;DHT22;44730;53.158;6.398;2023-03-22T05:16:24;9.20;99.90
58951;DHT22;44730;53.158;6.398;2023-03-22T05:18:51;9.30;99.90
58951;DHT22;44730;53.158;6.398;2023-03-22T05:21:20;9.30;99.90
58951;DHT22;44730;53.158;6.398;2023-03-22T05:23:47;9.30;99.90
58951;DHT22;44730;53.158;6.398;2023-03-22T05:26:14;9.30;99.90
58951;DHT22;44730;53.158;6.398;2023-03-22T05:28:41;9.30;99.90
58951;DHT22;44730;53.158;6.398;2023-03-22T05:31:08;9.30;99.90
58951;DHT22;44730;53.158;6.398;2023-03-22T05:33:35;9.30;99.90
58951;DHT22;44730;53.158;6.398;2023-03-22T05:36:01;9.40;99.90
58951;DHT22;44730;53.158;6.398;2023-03-22T05:38:27;9.40;99.90
58951;DHT22;44730;53.158;6.398;2023-03-22T05:40:53;9.40;99.90
58951;DHT22;44730;53.158;6.398;2023-03-22T05:43:19;9.40;99.90
58951;DHT22;44730;53.158;6.398;2023-03-22T05:45:45;9.40;99.90
58951;DHT22;44730;53.158;6.398;2023-03-22T05:48:11;9.40;99.90
58951;DHT22;44730;53.158;6.398;2023-03-22T05:50:37;9.50;99.90
58951;DHT22;44730;53.158;6.398;2023-03-22T05:53:03;9.50;99.90
58951;DHT22;44730;53.158;6.398;2023-03-22T05:55:29;9.50;99.90
58951;DHT22;44730;53.158;6.398;2023-03-22T05:57:57;9.50;99.90
58951;DHT22;44730;53.158;6.398;2023-03-22T06:00:23;9.50;99.90
58951;DHT22;44730;53.158;6.398;2023-03-22T06:02:50;9.50;99.90
58951;DHT22;44730;53.158;6.398;2023-03-22T06:05:21;9.50;99.90
58951;DHT22;44730;53.158;6.398;2023-03-22T06:07:47;9.60;99.90
58951;DHT22;44730;53.158;6.398;2023-03-22T06:10:14;9.60;99.90
58951;DHT22;44730;53.158;6.398;2023-03-22T06:12:40;9.60;99.90
58951;DHT22;44730;53.158;6.398;2023-03-22T06:15:07;9.60;99.90
58951;DHT22;44730;53.158;6.398;2023-03-22T06:17:33;9.60;99.90
58951;DHT22;44730;53.158;6.398;2023-03-22T06:19:59;9.70;99.90
58951;DHT22;44730;53.158;6.398;2023-03-22T06:22:25;9.70;99.90
58951;DHT22;44730;53.158;6.398;2023-03-22T06:24:51;9.70;99.90
58951;DHT22;44730;53.158;6.398;2023-03-22T06:27:17;9.70;99.90
58951;DHT22;44730;53.158;6.398;2023-03-22T06:29:43;9.80;99.90
58951;DHT22;44730;53.158;6.398;2023-03-22T06:32:14;9.80;99.90
58951;DHT22;44730;53.158;6.398;2023-03-22T06:34:39;9.80;99.90
58951;DHT22;44730;53.158;6.398;2023-03-22T06:37:05;9.80;99.90
58951;DHT22;44730;53.158;6.398;2023-03-22T06:39:31;9.80;99.90
58951;DHT22;44730;53.158;6.398;2023-03-22T06:41:57;9.80;99.90
58951;DHT22;44730;53.158;6.398;2023-03-22T06:44:23;9.80;99.90
58951;DHT22;44730;53.158;6.398;2023-03-22T06:46:50;9.90;99.90
58951;DHT22;44730;53.158;6.398;2023-03-22T06:49:16;10.00;99.90
58951;DHT22;44730;53.158;6.398;2023-03-22T06:51:43;10.10;99.90
58951;DHT22;44730;53.158;6.398;2023-03-22T06:54:09;10.10;99.90
58951;DHT22;44730;53.158;6.398;2023-03-22T06:56:37;10.20;99.90
58951;DHT22;44730;53.158;6.398;2023-03-22T06:59:02;10.20;99.90
58951;DHT22;44730;53.158;6.398;2023-03-22T07:01:28;10.40;99.90
58951;DHT22;44730;53.158;6.398;2023-03-22T07:03:54;10.50;99.90
58951;DHT22;44730;53.158;6.398;2023-03-22T07:06:19;10.60;99.90
58951;DHT22;44730;53.158;6.398;2023-03-22T07:08:47;10.70;99.90
58951;DHT22;44730;53.158;6.398;2023-03-22T07:11:13;10.70;99.90
58951;DHT22;44730;53.158;6.398;2023-03-22T07:13:40;10.70;99.90
58951;DHT22;44730;53.158;6.398;2023-03-22T07:16:06;10.70;99.90
58951;DHT22;44730;53.158;6.398;2023-03-22T07:18:32;10.70;99.90
58951;DHT22;44730;53.158;6.398;2023-03-22T07:20:58;10.70;99.90
58951;DHT22;44730;53.158;6.398;2023-03-22T07:23:24;10.70;99.90
58951;DHT22;44730;53.158;6.398;2023-03-22T07:25:51;10.80;99.90
58951;DHT22;44730;53.158;6.398;2023-03-22T07:28:16;10.70;99.90
58951;DHT22;44730;53.158;6.398;2023-03-22T07:30:42;10.70;99.90
58951;DHT22;44730;53.158;6.398;2023-03-22T07:33:09;10.70;99.90
58951;DHT22;44730;53.158;6.398;2023-03-22T07:35:37;10.70;99.90
58951;DHT22;44730;53.158;6.398;2023-03-22T07:38:04;10.70;99.90
58951;DHT22;44730;53.158;6.398;2023-03-22T07:40:32;10.70;99.90
58951;DHT22;44730;53.158;6.398;2023-03-22T07:42:58;10.70;99.90
58951;DHT22;44730;53.158;6.398;2023-03-22T07:45:25;10.70;99.90
58951;DHT22;44730;53.158;6.398;2023-03-22T07:47:50;10.70;99.90
58951;DHT22;44730;53.158;6.398;2023-03-22T07:50:17;10.60;99.90
58951;DHT22;44730;53.158;6.398;2023-03-22T07:52:43;10.70;99.90
58951;DHT22;44730;53.158;6.398;2023-03-22T07:55:11;10.70;99.90
58951;DHT22;44730;53.158;6.398;2023-03-22T07:57:37;10.70;99.90
58951;DHT22;44730;53.158;6.398;2023-03-22T08:00:05;10.90;99.90
58951;DHT22;44730;53.158;6.398;2023-03-22T08:02:31;11.00;99.90
58951;DHT22;44730;53.158;6.398;2023-03-22T08:04:57;11.10;99.90
58951;DHT22;44730;53.158;6.398;2023-03-22T08:07:23;11.20;99.90
58951;DHT22;44730;53.158;6.398;2023-03-22T08:09:51;11.30;99.90
58951;DHT22;44730;53.158;6.398;2023-03-22T08:12:17;11.20;99.90
58951;DHT22;44730;53.158;6.398;2023-03-22T08:14:43;11.20;99.90
58951;DHT22;44730;53.158;6.398;2023-03-22T08:17:16;11.10;99.90
58951;DHT22;44730;53.158;6.398;2023-03-22T08:19:43;11.10;99.90
58951;DHT22;44730;53.158;6.398;2023-03-22T08:22:08;11.10;99.90
58951;DHT22;44730;53.158;6.398;2023-03-22T08:24:37;11.10;99.90
58951;DHT22;44730;53.158;6.398;2023-03-22T08:27:03;11.20;99.90
58951;DHT22;44730;53.158;6.398;2023-03-22T08:29:29;11.20;99.90
58951;DHT22;44730;53.158;6.398;2023-03-22T08:31:55;11.20;99.90
58951;DHT22;44730;53.158;6.398;2023-03-22T08:34:28;11.30;99.90
58951;DHT22;44730;53.158;6.398;2023-03-22T08:36:55;11.30;99.90
58951;DHT22;44730;53.158;6.398;2023-03-22T08:39:21;11.40;99.90
58951;DHT22;44730;53.158;6.398;2023-03-22T08:41:49;11.40;99.90
58951;DHT22;44730;53.158;6.398;2023-03-22T08:44:15;11.50;99.90
58951;DHT22;44730;53.158;6.398;2023-03-22T08:46:41;11.50;99.90
58951;DHT22;44730;53.158;6.398;2023-03-22T08:49:06;11.60;99.90
58951;DHT22;44730;53.158;6.398;2023-03-22T08:51:34;11.70;99.90
58951;DHT22;44730;53.158;6.398;2023-03-22T08:54:01;11.80;99.90
58951;DHT22;44730;53.158;6.398;2023-03-22T08:56:28;11.80;99.90
58951;DHT22;44730;53.158;6.398;2023-03-22T08:58:54;11.90;99.90
58951;DHT22;44730;53.158;6.398;2023-03-22T09:01:19;11.90;99.90
58951;DHT22;44730;53.158;6.398;2023-03-22T09:03:46;11.90;99.90
58951;DHT22;44730;53.158;6.398;2023-03-22T09:06:12;11.80;99.90
58951;DHT22;44730;53.158;6.398;2023-03-22T09:08:39;11.80;99.90
58951;DHT22;44730;53.158;6.398;2023-03-22T09:11:10;11.70;99.90
58951;DHT22;44730;53.158;6.398;2023-03-22T09:13:36;11.70;99.90
58951;DHT22;44730;53.158;6.398;2023-03-22T09:16:03;11.70;99.90
58951;DHT22;44730;53.158;6.398;2023-03-22T09:18:29;11.60;99.90
58951;DHT22;44730;53.158;6.398;2023-03-22T09:20:55;11.60;99.90
58951;DHT22;44730;53.158;6.398;2023-03-22T09:23:21;11.60;99.90
58951;DHT22;44730;53.158;6.398;2023-03-22T09:25:47;11.60;99.90
58951;DHT22;44730;53.158;6.398;2023-03-22T09:28:14;11.60;99.90
58951;DHT22;44730;53.158;6.398;2023-03-22T09:30:40;11.60;99.90
58951;DHT22;44730;53.158;6.398;2023-03-22T09:33:07;11.50;99.90
58951;DHT22;44730;53.158;6.398;2023-03-22T09:35:33;11.50;99.90
58951;DHT22;44730;53.158;6.398;2023-03-22T09:37:59;11.50;99.90
58951;DHT22;44730;53.158;6.398;2023-03-22T09:40:29;11.50;99.90
58951;DHT22;44730;53.158;6.398;2023-03-22T09:43:04;11.50;99.90
58951;DHT22;44730;53.158;6.398;2023-03-22T09:45:40;11.40;99.90
58951;DHT22;44730;53.158;6.398;2023-03-22T09:48:23;11.40;99.90
58951;DHT22;44730;53.158;6.398;2023-03-22T09:50:53;11.30;99.90
58951;DHT22;44730;53.158;6.398;2023-03-22T09:53:22;11.20;99.90
58951;DHT22;44730;53.158;6.398;2023-03-22T09:56:03;11.30;99.90
58951;DHT22;44730;53.158;6.398;2023-03-22T10:04:09;11.00;99.90
58951;DHT22;44730;53.158;6.398;2023-03-22T10:06:46;11.00;99.90
58951;DHT22;44730;53.158;6.398;2023-03-22T10:09:19;10.90;99.90
58951;DHT22;44730;53.158;6.398;2023-03-22T10:12:06;10.80;99.90
58951;DHT22;44730;53.158;6.398;2023-03-22T10:14:58;10.80;99.90
58951;DHT22;44730;53.158;6.398;2023-03-22T10:17:30;10.70;99.90
58951;DHT22;44730;53.158;6.398;2023-03-22T10:20:37;10.70;99.90
58951;DHT22;44730;53.158;6.398;2023-03-22T10:23:05;10.70;99.90
58951;DHT22;44730;53.158;6.398;2023-03-22T10:25:37;10.60;99.90
58951;DHT22;44730;53.158;6.398;2023-03-22T10:28:26;10.50;99.90
58951;DHT22;44730;53.158;6.398;2023-03-22T10:30:55;10.50;99.90
58951;DHT22;44730;53.158;6.398;2023-03-22T10:33:37;10.50;99.90
58951;DHT22;44730;53.158;6.398;2023-03-22T10:36:06;10.50;99.90
58951;DHT22;44730;53.158;6.398;2023-03-22T10:38:39;10.40;99.90
58951;DHT22;44730;53.158;6.398;2023-03-22T10:41:08;10.40;99.90
58951;DHT22;44730;53.158;6.398;2023-03-22T10:43:37;10.40;99.90
58951;DHT22;44730;53.158;6.398;2023-03-22T10:46:05;10.30;99.90
58951;DHT22;44730;53.158;6.398;2023-03-22T10:48:37;10.30;99.90
58951;DHT22;44730;53.158;6.398;2023-03-22T10:51:03;10.30;99.90
58951;DHT22;44730;53.158;6.398;2023-03-22T10:53:35;10.30;99.90
58951;DHT22;44730;53.158;6.398;2023-03-22T10:56:04;10.30;99.90
58951;DHT22;44730;53.158;6.398;2023-03-22T10:58:32;10.30;99.90
58951;DHT22;44730;53.158;6.398;2023-03-22T11:01:07;10.30;99.90
58951;DHT22;44730;53.158;6.398;2023-03-22T11:03:39;10.30;99.90
58951;DHT22;44730;53.158;6.398;2023-03-22T11:06:29;10.40;99.90
58951;DHT22;44730;53.158;6.398;2023-03-22T11:09:07;10.40;99.90
58951;DHT22;44730;53.158;6.398;2023-03-22T11:11:55;10.40;99.90
58951;DHT22;44730;53.158;6.398;2023-03-22T11:14:34;10.40;99.90
58951;DHT22;44730;53.158;6.398;2023-03-22T11:17:10;10.40;99.90
58951;DHT22;44730;53.158;6.398;2023-03-22T11:19:54;10.50;99.90
58951;DHT22;44730;53.158;6.398;2023-03-22T11:24:49;10.50;99.90
58951;DHT22;44730;53.158;6.398;2023-03-22T11:27:27;10.50;99.90
58951;DHT22;44730;53.158;6.398;2023-03-22T11:32:46;10.50;99.90
58951;DHT22;44730;53.158;6.398;2023-03-22T11:35:21;10.60;99.90
58951;DHT22;44730;53.158;6.398;2023-03-22T11:37:51;10.60;99.90
58951;DHT22;44730;53.158;6.398;2023-03-22T11:40:29;10.60;99.90
58951;DHT22;44730;53.158;6.398;2023-03-22T11:45:49;10.60;99.90
58951;DHT22;44730;53.158;6.398;2023-03-22T11:48:22;10.60;99.90
58951;DHT22;44730;53.158;6.398;2023-03-22T11:50:52;10.60;99.90
58951;DHT22;44730;53.158;6.398;2023-03-22T11:53:21;10.70;99.90
58951;DHT22;44730;53.158;6.398;2023-03-22T11:55:49;10.70;99.90
58951;DHT22;44730;53.158;6.398;2023-03-22T11:58:26;10.70;99.90
58951;DHT22;44730;53.158;6.398;2023-03-22T12:00:54;10.70;99.90
58951;DHT22;44730;53.158;6.398;2023-03-22T12:03:25;10.80;99.90
58951;DHT22;44730;53.158;6.398;2023-03-22T12:05:53;10.80;99.90
58951;DHT22;44730;53.158;6.398;2023-03-22T12:08:38;10.80;99.90
58951;DHT22;44730;53.158;6.398;2023-03-22T12:11:06;10.80;99.90
58951;DHT22;44730;53.158;6.398;2023-03-22T12:13:54;10.80;99.90
58951;DHT22;44730;53.158;6.398;2023-03-22T12:16:25;10.80;99.90
58951;DHT22;44730;53.158;6.398;2023-03-22T12:21:48;10.80;99.90
58951;DHT22;44730;53.158;6.398;2023-03-22T12:24:32;10.80;99.90
58951;DHT22;44730;53.158;6.398;2023-03-22T12:27:11;10.80;99.90
58951;DHT22;44730;53.158;6.398;2023-03-22T12:30:04;10.80;99.90
58951;DHT22;44730;53.158;6.398;2023-03-22T12:32:33;10.80;99.90
58951;DHT22;44730;53.158;6.398;2023-03-22T12:34:59;10.80;99.90
58951;DHT22;44730;53.158;6.398;2023-03-22T12:37:33;10.70;99.90
58951;DHT22;44730;53.158;6.398;2023-03-22T12:40:04;10.70;99.90
58951;DHT22;44730;53.158;6.398;2023-03-22T12:42:41;10.60;99.90
58951;DHT22;44730;53.158;6.398;2023-03-22T12:45:17;10.60;99.90
58951;DHT22;44730;53.158;6.398;2023-03-22T12:52:53;10.50;99.90
58951;DHT22;44730;53.158;6.398;2023-03-22T12:55:34;10.50;99.90
58951;DHT22;44730;53.158;6.398;2023-03-22T12:58:04;10.40;99.90
58951;DHT22;44730;53.158;6.398;2023-03-22T13:00:39;10.50;99.90
58951;DHT22;44730;53.158;6.398;2023-03-22T13:03:22;10.50;99.90
58951;DHT22;44730;53.158;6.398;2023-03-22T13:06:00;10.50;99.90
58951;DHT22;44730;53.158;6.398;2023-03-22T13:11:30;10.50;99.90
58951;DHT22;44730;53.158;6.398;2023-03-22T13:13:56;10.50;99.90
58951;DHT22;44730;53.158;6.398;2023-03-22T13:16:24;10.50;99.90
58951;DHT22;44730;53.158;6.398;2023-03-22T13:19:21;10.50;99.90
58951;DHT22;44730;53.158;6.398;2023-03-22T13:21:49;10.50;99.90
58951;DHT22;44730;53.158;6.398;2023-03-22T13:26:52;10.40;99.90
58951;DHT22;44730;53.158;6.398;2023-03-22T13:32:06;10.40;99.90
58951;DHT22;44730;53.158;6.398;2023-03-22T13:34:51;10.40;99.90
58951;DHT22;44730;53.158;6.398;2023-03-22T13:42:45;10.40;99.90
58951;DHT22;44730;53.158;6.398;2023-03-22T13:45:29;10.40;99.90
58951;DHT22;44730;53.158;6.398;2023-03-22T13:48:09;10.40;99.90
58951;DHT22;44730;53.158;6.398;2023-03-22T13:50:36;10.40;99.90
58951;DHT22;44730;53.158;6.398;2023-03-22T13:53:06;10.40;99.90
58951;DHT22;44730;53.158;6.398;2023-03-22T13:58:50;10.40;99.90
58951;DHT22;44730;53.158;6.398;2023-03-22T14:04:11;10.30;99.90
58951;DHT22;44730;53.158;6.398;2023-03-22T14:07:02;10.30;99.90
58951;DHT22;44730;53.158;6.398;2023-03-22T14:09:42;10.30;99.90
58951;DHT22;44730;53.158;6.398;2023-03-22T14:12:27;10.30;99.90
58951;DHT22;44730;53.158;6.398;2023-03-22T14:14:59;10.30;99.90
58951;DHT22;44730;53.158;6.398;2023-03-22T14:20:18;10.40;99.90
58951;DHT22;44730;53.158;6.398;2023-03-22T14:22:49;10.40;99.90
58951;DHT22;44730;53.158;6.398;2023-03-22T14:25:19;10.40;99.90
58951;DHT22;44730;53.158;6.398;2023-03-22T14:27:46;10.40;99.90
58951;DHT22;44730;53.158;6.398;2023-03-22T14:30:38;10.50;99.90
58951;DHT22;44730;53.158;6.398;2023-03-22T14:33:11;10.50;99.90
58951;DHT22;44730;53.158;6.398;2023-03-22T14:35:41;10.50;99.90
58951;DHT22;44730;53.158;6.398;2023-03-22T14:38:12;10.50;99.90
58951;DHT22;44730;53.158;6.398;2023-03-22T14:40:40;10.50;99.90
58951;DHT22;44730;53.158;6.398;2023-03-22T14:43:22;10.50;99.90
58951;DHT22;44730;53.158;6.398;2023-03-22T14:45:59;10.60;99.90
58951;DHT22;44730;53.158;6.398;2023-03-22T14:48:31;10.60;99.90
58951;DHT22;44730;53.158;6.398;2023-03-22T14:51:00;10.60;99.90
58951;DHT22;44730;53.158;6.398;2023-03-22T14:53:36;10.60;99.90
58951;DHT22;44730;53.158;6.398;2023-03-22T14:58:52;10.60;99.90
58951;DHT22;44730;53.158;6.398;2023-03-22T15:01:27;10.60;99.90
58951;DHT22;44730;53.158;6.398;2023-03-22T15:03:58;10.60;99.90
58951;DHT22;44730;53.158;6.398;2023-03-22T15:06:26;10.60;99.90
58951;DHT22;44730;53.158;6.398;2023-03-22T15:08:54;10.60;99.90
58951;DHT22;44730;53.158;6.398;2023-03-22T15:11:21;10.60;99.90
58951;DHT22;44730;53.158;6.398;2023-03-22T15:13:48;10.60;99.90
58951;DHT22;44730;53.158;6.398;2023-03-22T15:16:20;10.70;99.90
58951;DHT22;44730;53.158;6.398;2023-03-22T15:18:49;10.70;99.90
58951;DHT22;44730;53.158;6.398;2023-03-22T15:21:16;10.60;99.90
58951;DHT22;44730;53.158;6.398;2023-03-22T15:23:54;10.60;99.90
58951;DHT22;44730;53.158;6.398;2023-03-22T15:26:24;10.60;99.90
58951;DHT22;44730;53.158;6.398;2023-03-22T15:28:59;10.60;99.90
58951;DHT22;44730;53.158;6.398;2023-03-22T15:31:32;10.60;99.90
58951;DHT22;44730;53.158;6.398;2023-03-22T15:34:00;10.60;99.90
58951;DHT22;44730;53.158;6.398;2023-03-22T15:36:30;10.60;99.90
58951;DHT22;44730;53.158;6.398;2023-03-22T15:39:03;10.60;99.90
58951;DHT22;44730;53.158;6.398;2023-03-22T15:41:41;10.60;99.90
58951;DHT22;44730;53.158;6.398;2023-03-22T15:44:25;10.60;99.90
58951;DHT22;44730;53.158;6.398;2023-03-22T15:51:49;10.60;99.90
58951;DHT22;44730;53.158;6.398;2023-03-22T15:54:25;10.60;99.90
58951;DHT22;44730;53.158;6.398;2023-03-22T15:56:52;10.60;99.90
58951;DHT22;44730;53.158;6.398;2023-03-22T15:59:28;10.60;99.90
58951;DHT22;44730;53.158;6.398;2023-03-22T16:01:59;10.60;99.90
58951;DHT22;44730;53.158;6.398;2023-03-22T16:04:31;10.60;99.90
58951;DHT22;44730;53.158;6.398;2023-03-22T16:06:59;10.60;99.90
58951;DHT22;44730;53.158;6.398;2023-03-22T16:09:26;10.60;99.90
58951;DHT22;44730;53.158;6.398;2023-03-22T16:11:52;10.60;99.90
58951;DHT22;44730;53.158;6.398;2023-03-22T16:14:18;10.60;99.90
58951;DHT22;44730;53.158;6.398;2023-03-22T16:16:45;10.60;99.90
58951;DHT22;44730;53.158;6.398;2023-03-22T16:19:11;10.60;99.90
58951;DHT22;44730;53.158;6.398;2023-03-22T16:21:37;10.60;99.90
58951;DHT22;44730;53.158;6.398;2023-03-22T16:24:05;10.60;99.90
58951;DHT22;44730;53.158;6.398;2023-03-22T16:26:31;10.60;99.90
58951;DHT22;44730;53.158;6.398;2023-03-22T16:28:57;10.60;99.90
58951;DHT22;44730;53.158;6.398;2023-03-22T16:31:24;10.60;99.90
58951;DHT22;44730;53.158;6.398;2023-03-22T16:33:51;10.60;99.90
58951;DHT22;44730;53.158;6.398;2023-03-22T16:36:19;10.60;99.90
58951;DHT22;44730;53.158;6.398;2023-03-22T16:38:45;10.60;99.90
58951;DHT22;44730;53.158;6.398;2023-03-22T16:41:25;10.60;99.90
58951;DHT22;44730;53.158;6.398;2023-03-22T16:43:53;10.60;99.90
58951;DHT22;44730;53.158;6.398;2023-03-22T16:46:20;10.60;99.90
58951;DHT22;44730;53.158;6.398;2023-03-22T16:48:46;10.50;99.90
58951;DHT22;44730;53.158;6.398;2023-03-22T16:51:25;10.50;99.90
58951;DHT22;44730;53.158;6.398;2023-03-22T16:53:53;10.50;99.90
58951;DHT22;44730;53.158;6.398;2023-03-22T16:56:23;10.50;99.90
58951;DHT22;44730;53.158;6.398;2023-03-22T16:58:49;10.50;99.90
58951;DHT22;44730;53.158;6.398;2023-03-22T17:01:19;10.50;99.90
58951;DHT22;44730;53.158;6.398;2023-03-22T17:03:46;10.50;99.90
58951;DHT22;44730;53.158;6.398;2023-03-22T17:06:15;10.50;99.90
58951;DHT22;44730;53.158;6.398;2023-03-22T17:08:41;10.50;99.90